createdAt,value
2023-01-17T00:01:59.225Z,90550.94
2023-01-17T00:05:32.849Z,90542.22
2023-01-17T00:09:12.234Z,90559.66
2023-01-17T00:12:28.556Z,90571.94
2023-01-17T00:15:50.225Z,90561.03
2023-01-17T00:19:24.065Z,90558.78
2023-01-17T00:23:04.224Z,90549.91
2023-01-17T00:26:26.166Z,90550.75
2023-01-17T00:29:41.266Z,90542.28
2023-01-17T00:33:03.158Z,90544.63
2023-01-17T00:36:25.166Z,90549.06
2023-01-17T00:39:40.291Z,90560.00
2023-01-17T00:43:20.234Z,90538.34
2023-01-17T00:47:00.169Z,90531.94
2023-01-17T00:50:40.219Z,90528.78
2023-01-17T00:54:20.216Z,90535.78
2023-01-17T00:57:54.061Z,90543.88
2023-01-17T01:01:34.277Z,90526.78
2023-01-17T01:05:14.184Z,90541.06
2023-01-17T01:08:55.155Z,90560.59
2023-01-17T01:12:35.224Z,90558.00
2023-01-17T01:16:08.699Z,90571.94
2023-01-17T01:19:48.138Z,90563.53
2023-01-17T01:23:29.151Z,90567.41
2023-01-17T01:27:09.145Z,90556.91
2023-01-17T01:30:49.154Z,90559.75
2023-01-17T01:34:11.148Z,90584.78
2023-01-17T01:37:26.333Z,90570.50
2023-01-17T01:40:48.161Z,90548.72
2023-01-17T01:44:03.471Z,90534.72
2023-01-17T01:47:27.171Z,90555.47
2023-01-17T01:50:50.142Z,90551.47
2023-01-17T01:54:09.273Z,90541.72
2023-01-17T01:57:33.153Z,90516.69
2023-01-17T02:00:55.223Z,90523.66
2023-01-17T02:04:11.018Z,90527.97
2023-01-17T02:07:37.153Z,90524.59
2023-01-17T02:10:52.372Z,90508.72
2023-01-17T02:14:14.136Z,90495.03
2023-01-17T02:17:54.189Z,90495.56
2023-01-17T02:21:16.179Z,90497.69
2023-01-17T02:24:34.169Z,90501.16
2023-01-17T02:28:11.097Z,90487.47
2023-01-17T02:31:36.323Z,90489.97
2023-01-17T02:35:01.133Z,90483.63
2023-01-17T02:38:23.119Z,90488.34
2023-01-17T02:41:49.101Z,90483.97
2023-01-17T02:45:11.121Z,90487.56
2023-01-17T02:48:36.105Z,90484.81
2023-01-17T02:51:51.322Z,90479.28
2023-01-17T02:55:31.124Z,90473.06
2023-01-17T02:58:59.124Z,90479.16
2023-01-17T03:02:36.119Z,90465.88
2023-01-17T03:06:06.076Z,90459.00
2023-01-17T03:09:29.147Z,90453.53
2023-01-17T03:12:45.185Z,90444.34
2023-01-17T03:16:07.098Z,90452.69
2023-01-17T03:19:29.131Z,90433.72
2023-01-17T03:22:51.133Z,90431.53
2023-01-17T03:26:13.107Z,90431.22
2023-01-17T03:29:28.193Z,90434.63
2023-01-17T03:32:50.079Z,90415.63
2023-01-17T03:36:12.081Z,90418.69
2023-01-17T03:39:34.015Z,90444.88
2023-01-17T03:42:49.218Z,90445.75
2023-01-17T03:46:14.101Z,90453.31
2023-01-17T03:49:29.079Z,90460.50
2023-01-17T03:52:51.041Z,90468.19
2023-01-17T03:56:13.098Z,90486.28
2023-01-17T03:59:35.102Z,90472.19
2023-01-17T04:02:57.068Z,90460.50
2023-01-17T04:06:12.144Z,90460.69
2023-01-17T04:09:34.105Z,90475.75
2023-01-17T04:12:49.188Z,90460.69
2023-01-17T04:16:11.036Z,90448.59
2023-01-17T04:19:33.065Z,90444.66
2023-01-17T04:22:48.262Z,90448.56
2023-01-17T04:26:10.057Z,90466.63
2023-01-17T04:29:32.099Z,90474.22
2023-01-17T04:32:47.178Z,90474.91
2023-01-17T04:36:09.075Z,90490.88
2023-01-17T04:39:24.160Z,90510.25
2023-01-17T04:42:46.061Z,90493.38
2023-01-17T04:46:09.051Z,90507.56
2023-01-17T04:49:31.045Z,90512.09
2023-01-17T04:52:46.199Z,90500.75
2023-01-17T04:56:08.039Z,90497.78
2023-01-17T04:59:23.083Z,90493.94
2023-01-17T05:02:45.071Z,90503.34
2023-01-17T05:06:00.159Z,90499.22
2023-01-17T05:09:22.046Z,90522.16
2023-01-17T05:12:43.967Z,90543.50
2023-01-17T05:16:06.055Z,90538.72
2023-01-17T05:19:28.013Z,90530.38
2023-01-17T05:22:50.090Z,90526.03
2023-01-17T05:26:12.019Z,90522.34
2023-01-17T05:29:34.032Z,90536.53
2023-01-17T05:32:55.992Z,90530.56
2023-01-17T05:36:19.228Z,90535.66
2023-01-17T05:39:43.034Z,90524.94
2023-01-17T05:42:59.317Z,90520.84
2023-01-17T05:46:23.141Z,90535.78
2023-01-17T05:49:45.987Z,90538.22
2023-01-17T05:53:02.125Z,90547.97
2023-01-17T05:56:23.993Z,90537.97
2023-01-17T05:59:39.095Z,90531.72
2023-01-17T06:03:01.975Z,90524.19
2023-01-17T06:06:17.153Z,90538.44
2023-01-17T06:09:38.953Z,90523.75
2023-01-17T06:13:01.044Z,90485.66
2023-01-17T06:16:16.314Z,90490.53
2023-01-17T06:19:37.992Z,90479.59
2023-01-17T06:22:55.370Z,90475.03
2023-01-17T06:26:17.004Z,90498.16
2023-01-17T06:29:38.965Z,90506.25
2023-01-17T06:33:09.999Z,90501.91
2023-01-17T06:36:31.980Z,90490.94
2023-01-17T06:39:53.951Z,90505.34
2023-01-17T06:43:09.227Z,90505.75
2023-01-17T06:46:31.020Z,90490.53
2023-01-17T06:49:52.958Z,90483.00
2023-01-17T06:53:10.081Z,90495.25
2023-01-17T06:56:31.919Z,90489.97
2023-01-17T06:59:47.523Z,90489.41
2023-01-17T14:10:30.076Z,90454.00
2023-01-17T14:13:45.460Z,90444.41
2023-01-17T14:17:07.064Z,90450.31
2023-01-17T14:20:25.323Z,90448.44
2023-01-17T14:23:51.027Z,90457.00
2023-01-17T14:27:22.049Z,90445.00
2023-01-17T14:30:47.116Z,90452.97
2023-01-17T14:34:19.080Z,90438.63
2023-01-17T14:37:47.088Z,90439.06
2023-01-17T14:41:14.017Z,90439.66
2023-01-17T14:44:36.064Z,90433.91
2023-01-17T14:47:52.742Z,90446.34
2023-01-17T14:51:14.026Z,90437.34
2023-01-17T14:54:29.584Z,90439.50
2023-01-17T14:57:51.052Z,90432.44
2023-01-17T15:01:33.177Z,90433.97
2023-01-17T15:04:48.114Z,90435.44
2023-01-17T15:08:10.003Z,90438.72
2023-01-17T15:11:34.050Z,90423.56
2023-01-17T15:14:56.023Z,90419.81
2023-01-17T15:18:22.013Z,90422.09
2023-01-17T15:21:47.008Z,90412.47
2023-01-17T15:25:09.017Z,90427.84
2023-01-17T15:28:24.733Z,90424.81
2023-01-17T15:32:05.020Z,90420.06
2023-01-17T15:35:20.629Z,90429.94
2023-01-17T15:38:42.048Z,90430.63
2023-01-17T15:42:12.044Z,90429.06
2023-01-17T15:45:36.018Z,90447.38
2023-01-17T15:48:58.009Z,90454.03
2023-01-17T15:52:13.097Z,90448.69
2023-01-17T15:55:38.071Z,90444.09
2023-01-17T15:58:53.137Z,90434.78
2023-01-17T16:02:32.066Z,90440.56
2023-01-17T16:05:47.118Z,90440.81
2023-01-17T16:09:11.035Z,90434.78
2023-01-17T16:12:26.130Z,90439.97
2023-01-17T16:15:48.078Z,90441.19
2023-01-17T16:19:12.019Z,90449.06
2023-01-17T16:22:33.991Z,90445.91
2023-01-17T16:25:55.991Z,90442.69
2023-01-17T16:29:11.208Z,90448.44
2023-01-17T16:32:33.992Z,90436.28
2023-01-17T16:35:57.969Z,90450.50
2023-01-17T16:39:13.113Z,90439.41
2023-01-17T16:42:34.991Z,90424.34
2023-01-17T16:45:53.140Z,90413.78
2023-01-17T16:49:14.964Z,90395.91
2023-01-17T16:52:29.998Z,90397.22
2023-01-17T16:55:51.999Z,90401.75
2023-01-17T16:59:07.054Z,90395.53
2023-01-17T17:02:29.965Z,90400.44
2023-01-17T17:05:53.987Z,90397.84
2023-01-17T17:09:15.971Z,90397.19
2023-01-17T17:12:38.015Z,90400.34
2023-01-17T17:16:00.060Z,90408.09
2023-01-17T17:19:21.981Z,90401.06
2023-01-17T17:22:43.982Z,90409.13
2023-01-17T17:26:02.276Z,90397.03
2023-01-17T17:29:23.946Z,90388.38
2023-01-17T17:32:39.075Z,90382.13
2023-01-17T17:36:00.922Z,90385.16
2023-01-17T17:39:25.968Z,90391.97
2023-01-17T17:42:42.424Z,90385.75
2023-01-17T17:46:03.972Z,90375.03
2023-01-17T17:49:26.916Z,90355.28
2023-01-17T17:52:44.187Z,90346.09
2023-01-17T17:56:09.967Z,90331.50
2023-01-17T17:59:31.964Z,90318.34
2023-01-17T18:02:53.923Z,90316.72
2023-01-17T18:06:16.949Z,90310.63
2023-01-17T18:09:38.951Z,90300.75
2023-01-17T18:13:00.896Z,90303.94
2023-01-17T18:16:23.966Z,90302.13
2023-01-17T18:19:39.123Z,90301.72
2023-01-17T18:23:00.900Z,90298.78
2023-01-17T18:26:32.920Z,90305.66
2023-01-17T18:29:55.981Z,90318.72
2023-01-17T18:33:17.947Z,90307.09
2023-01-17T18:36:34.836Z,90304.13
2023-01-17T18:39:56.892Z,90299.22
2023-01-17T18:43:12.092Z,90294.97
2023-01-17T18:46:33.960Z,90296.47
2023-01-17T18:49:59.868Z,90299.06
2023-01-17T18:53:21.908Z,90312.69
2023-01-17T18:56:43.939Z,90310.84
2023-01-17T18:59:58.971Z,90321.38
2023-01-17T19:03:20.946Z,90331.56
2023-01-17T19:06:36.987Z,90339.00
2023-01-17T19:09:58.933Z,90318.56
2023-01-17T19:13:13.990Z,90305.28
2023-01-17T19:16:37.009Z,90299.78
2023-01-17T19:19:58.894Z,90296.47
2023-01-17T19:23:14.186Z,90291.50
2023-01-17T19:26:36.865Z,90279.97
2023-01-17T19:29:52.099Z,90266.06
2023-01-17T19:33:13.865Z,90258.19
2023-01-17T19:36:37.856Z,90265.72
2023-01-17T19:39:59.868Z,90249.56
2023-01-17T19:43:21.957Z,90247.69
2023-01-17T19:46:37.026Z,90254.50
2023-01-17T19:49:58.884Z,90232.47
2023-01-17T19:53:20.874Z,90235.81
2023-01-17T19:56:42.876Z,90237.84
2023-01-17T20:00:04.839Z,90245.06
2023-01-17T20:03:22.070Z,90236.13
2023-01-17T20:06:44.836Z,90237.00
2023-01-17T20:10:06.888Z,90237.88
2023-01-17T20:13:21.964Z,90235.38
2023-01-17T20:16:43.891Z,90244.22
2023-01-17T20:19:58.969Z,90230.38
2023-01-17T20:23:20.852Z,90225.72
2023-01-17T20:26:43.825Z,90228.41
2023-01-17T20:30:08.165Z,90237.66
2023-01-17T20:33:36.837Z,90231.03
2023-01-17T20:37:00.855Z,90232.63
2023-01-17T20:40:17.601Z,90238.03
2023-01-17T20:43:39.809Z,90241.47
2023-01-17T20:47:01.814Z,90231.91
2023-01-17T20:50:17.163Z,90240.31
2023-01-17T20:53:38.851Z,90226.59
2023-01-17T20:56:55.316Z,90233.97
2023-01-17T21:00:16.856Z,90216.88
2023-01-17T21:03:33.800Z,90219.44
2023-01-17T21:06:57.804Z,90219.47
2023-01-17T21:10:19.817Z,90232.34
2023-01-17T21:13:41.878Z,90230.09
2023-01-17T21:17:03.853Z,90219.75
2023-01-17T21:20:25.827Z,90217.44
2023-01-17T21:23:48.794Z,90201.06
2023-01-17T21:27:10.763Z,90204.09
2023-01-17T21:30:26.038Z,90201.41
2023-01-17T21:33:47.801Z,90184.94
2023-01-17T21:37:09.761Z,90191.91
2023-01-17T21:40:31.793Z,90186.00
2023-01-17T21:43:53.808Z,90191.72
2023-01-17T21:47:15.794Z,90199.34
2023-01-17T21:50:33.644Z,90209.53
2023-01-17T21:53:55.793Z,90204.38
2023-01-17T21:57:36.826Z,90216.38
2023-01-17T22:01:07.662Z,90199.94
2023-01-17T22:04:29.753Z,90201.16
2023-01-17T22:08:04.901Z,90194.66
2023-01-17T22:11:27.735Z,90205.94
2023-01-17T22:14:50.803Z,90209.34
2023-01-17T22:18:06.233Z,90215.03
2023-01-17T22:21:45.783Z,90206.41
2023-01-17T22:25:07.782Z,90219.91
2023-01-17T22:28:23.251Z,90239.81
2023-01-17T22:31:44.757Z,90225.63
2023-01-17T22:35:06.912Z,90229.38
2023-01-17T22:38:22.027Z,90228.09
2023-01-17T22:41:43.805Z,90242.41
2023-01-17T22:44:58.983Z,90228.44
2023-01-17T22:48:20.744Z,90228.16
2023-01-17T22:51:42.738Z,90215.00
2023-01-17T22:55:04.771Z,90201.34
2023-01-17T22:58:26.724Z,90208.75
2023-01-17T23:01:48.754Z,90195.84
2023-01-17T23:05:03.999Z,90196.25
2023-01-17T23:08:26.754Z,90201.00
2023-01-17T23:11:56.728Z,90192.94
2023-01-17T23:15:36.732Z,90177.19
2023-01-17T23:19:10.617Z,90193.47
2023-01-17T23:22:33.768Z,90197.00
2023-01-17T23:25:48.907Z,90178.50
2023-01-17T23:29:10.740Z,90176.44
2023-01-17T23:32:32.784Z,90182.56
2023-01-17T23:35:48.788Z,90194.09
2023-01-17T23:39:10.731Z,90186.47
2023-01-17T23:42:44.249Z,90177.34
2023-01-17T23:46:05.707Z,90177.72
2023-01-17T23:49:27.726Z,90180.09
2023-01-17T23:52:42.896Z,90185.84
2023-01-17T23:56:08.768Z,90196.09
2023-01-17T23:59:30.709Z,90191.88
